Time;durP1;ratioP1;P1;durP2;ratioP2;P2;SDS_P1;SDS_P2;PMS_P1;PMS_P2;Temp;Humidity;BMP_temperature;BMP_pressure;BME280_temperature;BME280_humidity;BME280_pressure;Samples;Min_cycle;Max_cycle;Signal;HPM_P1;HPM_P2
2021/12/20 00:00:19;;;;;;;14.70;2.55;;;26.80;99.90;;;;;;5053702;28;20613;-75
2021/12/20 00:02:52;;;;;;;12.88;2.67;;;26.80;99.90;;;;;;5053840;28;20228;-75
2021/12/20 00:05:23;;;;;;;15.13;2.35;;;27.00;99.90;;;;;;5053943;28;20232;-75
2021/12/20 00:07:54;;;;;;;14.23;2.33;;;27.10;99.90;;;;;;5053993;28;20182;-75
2021/12/20 00:10:27;;;;;;;11.25;2.28;;;27.20;99.90;;;;;;5053613;28;20225;-75
2021/12/20 00:12:57;;;;;;;17.40;3.13;;;27.20;99.90;;;;;;5052176;28;20194;-76
2021/12/20 00:15:28;;;;;;;14.20;2.65;;;27.50;99.90;;;;;;5051316;28;20189;-75
2021/12/20 00:17:59;;;;;;;12.95;2.45;;;27.50;99.90;;;;;;5053725;28;20186;-75
2021/12/20 00:20:30;;;;;;;13.32;2.30;;;27.20;99.90;;;;;;5054364;28;20182;-75
2021/12/20 00:23:00;;;;;;;18.27;2.85;;;27.20;99.90;;;;;;5054210;28;20673;-76
2021/12/20 00:25:33;;;;;;;15.75;2.38;;;27.40;99.90;;;;;;5047151;28;20194;-76
2021/12/20 00:28:04;;;;;;;13.50;2.67;;;27.60;99.90;;;;;;5054263;28;20197;-75
2021/12/20 00:30:35;;;;;;;12.57;2.30;;;27.50;99.90;;;;;;5047133;28;20182;-76
2021/12/20 00:33:06;;;;;;;14.10;2.53;;;27.60;99.90;;;;;;5053903;28;20189;-76
2021/12/20 00:35:37;;;;;;;14.63;2.38;;;27.60;99.90;;;;;;5046829;28;20200;-75
2021/12/20 00:40:56;;;;;;;12.30;2.45;;;28.00;99.90;;;;;;5052346;28;20193;-76
2021/12/20 00:43:27;;;;;;;13.55;2.47;;;28.10;99.90;;;;;;5053966;28;20194;-76
2021/12/20 00:45:57;;;;;;;14.30;2.58;;;28.00;99.90;;;;;;5054137;28;20182;-77
2021/12/20 00:48:28;;;;;;;13.15;2.92;;;27.80;99.90;;;;;;5052395;28;20236;-75
2021/12/20 00:50:59;;;;;;;10.45;2.72;;;27.90;99.90;;;;;;5054136;28;20190;-76
2021/12/20 00:53:30;;;;;;;12.75;2.50;;;28.00;99.90;;;;;;5054029;28;20648;-76
2021/12/20 00:56:02;;;;;;;17.52;3.10;;;28.00;99.90;;;;;;5050408;28;20273;-76
2021/12/20 00:58:33;;;;;;;14.73;2.33;;;28.10;99.90;;;;;;5053110;28;20193;-76
2021/12/20 01:01:05;;;;;;;14.70;2.58;;;27.90;99.90;;;;;;5053505;28;20221;-76
2021/12/20 01:03:35;;;;;;;15.93;2.78;;;27.70;99.90;;;;;;5053828;28;20227;-76
2021/12/20 01:06:06;;;;;;;14.73;2.53;;;27.60;99.90;;;;;;5053358;28;20185;-77
2021/12/20 01:08:40;;;;;;;12.65;2.60;;;27.60;99.90;;;;;;5053932;28;20671;-76
2021/12/20 01:11:14;;;;;;;12.52;2.15;;;27.60;99.90;;;;;;5053493;28;20194;-76
2021/12/20 01:13:44;;;;;;;13.60;1.98;;;27.70;99.90;;;;;;5053573;28;20221;-76
2021/12/20 01:16:15;;;;;;;9.30;2.17;;;27.80;99.90;;;;;;5053489;28;20247;-76
2021/12/20 01:18:46;;;;;;;12.65;2.25;;;28.10;99.90;;;;;;5042553;28;20933;-76
2021/12/20 01:21:16;;;;;;;16.23;2.70;;;28.20;99.90;;;;;;5053692;28;20545;-75
2021/12/20 01:23:47;;;;;;;12.15;2.03;;;28.30;99.90;;;;;;5053413;28;20240;-75
2021/12/20 01:26:20;;;;;;;9.02;1.80;;;28.20;99.90;;;;;;5052922;28;20541;-75
2021/12/20 01:28:50;;;;;;;15.98;3.38;;;28.00;99.90;;;;;;5047085;28;20235;-75
2021/12/20 01:31:21;;;;;;;14.85;2.05;;;28.20;99.90;;;;;;5053136;28;20235;-77
2021/12/20 01:33:52;;;;;;;12.73;2.30;;;28.50;99.90;;;;;;5050177;28;20194;-76
2021/12/20 01:36:23;;;;;;;10.15;1.90;;;28.70;99.90;;;;;;5053089;28;20231;-77
2021/12/20 01:38:53;;;;;;;9.60;2.20;;;28.70;99.90;;;;;;5053257;28;20190;-76
2021/12/20 01:41:26;;;;;;;8.02;1.70;;;28.50;99.90;;;;;;5053114;28;20192;-76
2021/12/20 01:43:57;;;;;;;11.93;2.22;;;28.40;99.90;;;;;;5053129;28;20660;-76
2021/12/20 01:46:27;;;;;;;9.95;2.10;;;28.30;99.90;;;;;;5051911;28;20273;-75
2021/12/20 01:49:00;;;;;;;7.93;1.88;;;28.50;99.90;;;;;;5049004;28;20543;-76
2021/12/20 01:51:45;;;;;;;11.80;2.20;;;28.70;99.90;;;;;;5053050;28;20197;-76
2021/12/20 01:54:16;;;;;;;11.30;2.35;;;28.60;99.90;;;;;;5053051;28;20637;-76
2021/12/20 01:56:48;;;;;;;12.25;2.83;;;28.60;99.90;;;;;;5052072;28;20239;-76
2021/12/20 01:59:19;;;;;;;9.70;2.17;;;28.40;99.90;;;;;;5058390;28;20193;-76
2021/12/20 02:01:51;;;;;;;12.88;2.20;;;28.50;99.90;;;;;;5050294;28;20225;-76
2021/12/20 02:04:22;;;;;;;8.20;1.88;;;28.40;99.90;;;;;;5046689;28;20201;-77
2021/12/20 02:06:53;;;;;;;10.60;1.90;;;28.40;99.90;;;;;;5051069;28;20251;-77
2021/12/20 02:09:24;;;;;;;15.15;2.50;;;28.50;99.90;;;;;;5046383;28;20225;-76
2021/12/20 02:11:57;;;;;;;8.35;1.63;;;28.40;99.90;;;;;;5051932;28;20552;-76
2021/12/20 02:14:28;;;;;;;8.90;1.98;;;28.50;99.90;;;;;;5052438;28;20231;-77
2021/12/20 02:16:59;;;;;;;13.77;2.05;;;28.60;99.90;;;;;;5051097;28;20190;-76
2021/12/20 02:19:30;;;;;;;6.57;1.42;;;28.60;99.90;;;;;;5052873;28;20610;-77
2021/12/20 02:22:05;;;;;;;7.57;1.70;;;28.60;99.90;;;;;;5052453;28;20593;-77
2021/12/20 02:24:36;;;;;;;12.48;2.00;;;28.70;99.90;;;;;;5052716;28;20247;-76
2021/12/20 02:27:07;;;;;;;9.15;1.90;;;28.70;99.90;;;;;;5052375;28;20190;-76
2021/12/20 02:29:46;;;;;;;8.95;1.80;;;28.70;99.90;;;;;;5052827;28;20648;-76
2021/12/20 02:37:52;;;;;;;11.15;2.00;;;28.60;99.90;;;;;;5051311;28;20204;-76
2021/12/20 02:40:23;;;;;;;10.50;1.85;;;28.60;99.90;;;;;;5052082;28;20198;-76
2021/12/20 02:42:53;;;;;;;11.43;2.10;;;28.70;99.90;;;;;;5051915;28;20209;-76
2021/12/20 02:45:30;;;;;;;12.13;2.25;;;28.80;99.90;;;;;;5051817;28;20181;-77
2021/12/20 02:48:00;;;;;;;10.77;2.10;;;28.80;99.90;;;;;;5051528;28;20218;-76
2021/12/20 02:50:31;;;;;;;9.65;1.98;;;28.80;99.90;;;;;;5051574;28;20559;-76
2021/12/20 02:53:04;;;;;;;14.07;2.00;;;28.80;99.90;;;;;;5052420;28;20236;-77
2021/12/20 02:55:34;;;;;;;8.55;1.95;;;28.80;99.90;;;;;;5055365;28;20185;-76
2021/12/20 02:58:05;;;;;;;10.10;1.60;;;28.90;99.90;;;;;;5049866;28;20248;-76
2021/12/20 03:00:36;;;;;;;12.30;1.98;;;28.80;99.90;;;;;;5050443;28;20688;-77
2021/12/20 03:03:07;;;;;;;12.00;2.20;;;28.70;99.90;;;;;;5045968;28;20213;-76
2021/12/20 03:05:38;;;;;;;9.77;2.03;;;28.60;99.90;;;;;;5052158;28;20272;-76
2021/12/20 03:08:10;;;;;;;8.77;2.10;;;28.50;99.90;;;;;;5052121;28;20194;-77
2021/12/20 03:10:42;;;;;;;6.93;1.70;;;28.70;99.90;;;;;;5051357;28;20600;-77
2021/12/20 03:13:13;;;;;;;12.43;2.03;;;28.70;99.90;;;;;;5051587;28;20224;-76
2021/12/20 03:15:44;;;;;;;10.60;1.85;;;28.60;99.90;;;;;;5050734;28;20194;-76
2021/12/20 03:18:15;;;;;;;8.93;1.80;;;28.50;99.90;;;;;;5050998;28;20193;-76
2021/12/20 03:20:45;;;;;;;13.00;1.75;;;28.70;99.90;;;;;;5047744;28;20204;-77
2021/12/20 03:23:18;;;;;;;13.38;2.05;;;28.90;99.90;;;;;;5051442;28;20217;-76
2021/12/20 03:25:49;;;;;;;13.70;1.90;;;28.90;99.90;;;;;;5051584;28;20186;-76
2021/12/20 03:28:20;;;;;;;9.13;1.80;;;28.80;99.90;;;;;;5053607;28;20200;-76
2021/12/20 03:30:51;;;;;;;13.10;2.30;;;28.90;99.90;;;;;;5052359;28;20544;-76
2021/12/20 03:33:21;;;;;;;10.80;1.80;;;29.00;99.90;;;;;;5051324;28;20182;-77
2021/12/20 03:35:52;;;;;;;10.32;2.30;;;29.10;99.90;;;;;;5051889;28;20212;-75
2021/12/20 03:38:25;;;;;;;8.00;1.80;;;29.00;99.90;;;;;;5051228;28;20653;-76
2021/12/20 03:40:55;;;;;;;6.88;1.60;;;29.10;99.90;;;;;;5051369;28;20586;-77
2021/12/20 03:43:31;;;;;;;11.90;1.95;;;29.10;99.90;;;;;;5049523;28;20268;-76
2021/12/20 03:46:02;;;;;;;9.95;1.95;;;28.70;99.90;;;;;;5051939;28;20208;-76
2021/12/20 03:48:33;;;;;;;10.55;2.00;;;28.80;99.90;;;;;;5051579;28;20193;-76
2021/12/20 03:51:05;;;;;;;15.43;2.28;;;28.80;99.90;;;;;;5055038;28;20182;-77
2021/12/20 03:53:38;;;;;;;11.43;1.75;;;28.70;99.90;;;;;;5054761;28;20194;-77
2021/12/20 03:56:10;;;;;;;9.73;1.90;;;28.60;99.90;;;;;;5048745;28;20198;-77
2021/12/20 03:58:41;;;;;;;9.65;1.80;;;28.80;99.90;;;;;;5053968;28;20189;-77
2021/12/20 04:01:13;;;;;;;9.75;1.60;;;28.80;99.90;;;;;;5053832;28;20218;-75
2021/12/20 04:03:44;;;;;;;12.07;1.90;;;28.60;99.90;;;;;;5054387;28;20685;-76
2021/12/20 04:06:16;;;;;;;11.48;1.80;;;28.40;99.90;;;;;;5055262;28;20185;-76
2021/12/20 04:08:48;;;;;;;12.85;2.28;;;28.50;99.90;;;;;;5054142;28;20239;-76
2021/12/20 04:11:19;;;;;;;14.25;2.10;;;28.70;99.90;;;;;;5050625;28;20661;-76
2021/12/20 04:13:50;;;;;;;13.27;2.10;;;28.60;99.90;;;;;;5047968;28;20657;-76
2021/12/20 04:16:21;;;;;;;11.98;1.92;;;28.70;99.90;;;;;;5052620;28;20201;-76
2021/12/20 04:18:51;;;;;;;14.88;2.03;;;28.60;99.90;;;;;;5053964;28;20201;-76
2021/12/20 04:21:22;;;;;;;11.07;1.73;;;28.60;99.90;;;;;;5053242;28;20235;-76
2021/12/20 04:23:55;;;;;;;6.93;1.70;;;28.70;99.90;;;;;;5053820;28;20228;-76
2021/12/20 04:26:25;;;;;;;13.35;2.53;;;28.50;99.90;;;;;;5053583;28;20190;-75
2021/12/20 04:28:56;;;;;;;11.75;2.33;;;28.50;99.90;;;;;;5050200;28;20667;-76
2021/12/20 04:31:28;;;;;;;11.68;2.13;;;28.40;99.90;;;;;;5054076;28;20205;-75
2021/12/20 04:33:58;;;;;;;9.48;1.90;;;28.40;99.90;;;;;;5051795;28;20189;-76
2021/12/20 04:36:32;;;;;;;11.25;2.10;;;28.30;99.90;;;;;;5053175;28;20193;-75
2021/12/20 04:39:07;;;;;;;10.15;1.80;;;28.30;99.90;;;;;;5054511;28;20182;-75
2021/12/20 04:41:38;;;;;;;11.18;2.17;;;28.30;99.90;;;;;;5045934;28;20280;-75
2021/12/20 04:44:09;;;;;;;13.57;2.13;;;28.50;99.90;;;;;;5050381;28;20210;-75
2021/12/20 04:46:39;;;;;;;12.00;1.98;;;28.30;99.90;;;;;;5050479;28;20237;-76
2021/12/20 04:49:10;;;;;;;9.60;2.10;;;28.20;99.90;;;;;;5045884;28;20194;-76
2021/12/20 04:51:41;;;;;;;11.27;2.10;;;28.30;99.90;;;;;;5060592;28;20190;-76
2021/12/20 04:54:13;;;;;;;16.98;2.20;;;28.20;99.90;;;;;;5048021;28;20194;-76
2021/12/20 04:56:44;;;;;;;13.18;2.10;;;28.20;99.90;;;;;;5053495;28;20633;-76
2021/12/20 04:59:14;;;;;;;15.18;2.20;;;28.10;99.90;;;;;;5049711;28;20190;-76
2021/12/20 05:01:45;;;;;;;11.23;1.80;;;28.00;99.90;;;;;;5052781;28;20683;-76
2021/12/20 05:04:16;;;;;;;11.10;1.88;;;28.00;99.90;;;;;;5053961;28;20609;-77
2021/12/20 05:06:48;;;;;;;9.32;2.00;;;28.00;99.90;;;;;;5051105;28;20186;-76
2021/12/20 05:09:21;;;;;;;14.60;2.45;;;28.00;99.90;;;;;;5050932;28;20234;-76
2021/12/20 05:11:58;;;;;;;15.55;2.30;;;28.00;99.90;;;;;;5051660;28;20210;-75
2021/12/20 05:14:29;;;;;;;11.43;2.05;;;27.70;99.90;;;;;;5053355;28;20201;-76
2021/12/20 05:17:05;;;;;;;13.57;2.40;;;27.50;99.90;;;;;;5051829;28;20193;-76
2021/12/20 05:19:36;;;;;;;10.95;1.92;;;27.50;99.90;;;;;;5050545;28;20190;-75
2021/12/20 05:22:07;;;;;;;11.60;2.10;;;27.60;99.90;;;;;;5051937;28;20247;-75
2021/12/20 05:24:39;;;;;;;11.73;2.13;;;27.60;99.90;;;;;;5055704;28;20229;-76
2021/12/20 05:27:10;;;;;;;14.55;2.13;;;27.80;99.90;;;;;;5052443;28;20603;-76
2021/12/20 05:29:41;;;;;;;15.48;2.60;;;27.80;99.90;;;;;;5043878;28;20211;-76
2021/12/20 05:32:12;;;;;;;15.93;2.33;;;27.70;99.90;;;;;;5053281;28;20193;-76
2021/12/20 05:34:42;;;;;;;15.10;2.50;;;27.70;99.90;;;;;;5052076;28;20201;-76
2021/12/20 05:37:13;;;;;;;10.57;2.28;;;27.50;99.90;;;;;;5051803;28;20193;-76
2021/12/20 05:39:46;;;;;;;14.75;2.20;;;27.70;99.90;;;;;;5053138;28;20190;-77
2021/12/20 05:42:17;;;;;;;14.77;2.47;;;27.80;99.90;;;;;;5053105;28;20190;-75
2021/12/20 05:44:50;;;;;;;15.15;2.10;;;27.60;99.90;;;;;;5052886;28;20202;-75
2021/12/20 05:47:22;;;;;;;16.67;2.17;;;27.50;99.90;;;;;;5049644;28;20296;-75
2021/12/20 05:49:53;;;;;;;13.20;2.50;;;27.50;99.90;;;;;;5053014;28;20208;-77
2021/12/20 05:52:23;;;;;;;11.43;2.35;;;27.50;99.90;;;;;;5052947;28;20224;-76
2021/12/20 05:54:56;;;;;;;13.80;1.92;;;27.50;99.90;;;;;;5052418;28;20190;-76
2021/12/20 05:57:27;;;;;;;8.85;1.92;;;27.40;99.90;;;;;;5053095;28;20201;-76
2021/12/20 05:59:57;;;;;;;9.65;2.22;;;27.40;99.90;;;;;;5044854;28;20279;-76
2021/12/20 06:02:28;;;;;;;13.63;2.20;;;27.20;99.90;;;;;;5052520;28;20189;-77
2021/12/20 06:04:59;;;;;;;14.48;2.17;;;27.30;99.90;;;;;;5049157;28;20537;-76
2021/12/20 06:07:29;;;;;;;12.80;2.20;;;27.10;99.90;;;;;;5052764;28;20640;-76
2021/12/20 06:10:02;;;;;;;8.60;1.88;;;27.20;99.90;;;;;;5051373;28;20244;-76
2021/12/20 06:12:32;;;;;;;13.80;2.28;;;27.20;99.90;;;;;;5052081;28;20185;-77
2021/12/20 06:15:03;;;;;;;11.43;2.00;;;27.20;99.90;;;;;;5052762;28;20190;-75
2021/12/20 06:17:34;;;;;;;17.02;2.20;;;27.30;99.90;;;;;;5051884;28;20196;-76
2021/12/20 06:20:05;;;;;;;12.98;2.00;;;27.20;99.90;;;;;;5058612;28;20224;-75
2021/12/20 06:22:36;;;;;;;15.07;2.20;;;27.30;99.90;;;;;;5051806;28;20193;-75
2021/12/20 06:25:11;;;;;;;15.38;2.40;;;27.20;99.90;;;;;;5052641;28;20198;-75
2021/12/20 06:27:43;;;;;;;12.32;2.03;;;27.20;99.90;;;;;;5052233;28;20185;-75
2021/12/20 06:30:15;;;;;;;10.63;2.03;;;27.20;99.90;;;;;;5052450;28;20186;-75
2021/12/20 06:32:49;;;;;;;10.35;2.10;;;27.30;99.90;;;;;;5052438;28;20188;-75
2021/12/20 06:35:20;;;;;;;10.80;2.28;;;27.40;99.90;;;;;;5052179;28;20198;-75
2021/12/20 06:37:59;;;;;;;8.60;2.00;;;27.30;99.90;;;;;;5052476;28;20244;-75
2021/12/20 06:40:33;;;;;;;9.35;2.13;;;27.20;99.90;;;;;;5052034;28;20197;-75
2021/12/20 06:43:05;;;;;;;11.00;1.85;;;27.30;99.90;;;;;;5052102;28;20665;-75
2021/12/20 06:45:39;;;;;;;9.48;2.00;;;27.30;99.90;;;;;;5052123;28;21119;-75
2021/12/20 06:48:10;;;;;;;13.10;2.50;;;27.40;99.90;;;;;;5051421;28;20188;-75
2021/12/20 06:50:41;;;;;;;12.20;2.13;;;27.50;99.90;;;;;;5052301;28;20198;-75
2021/12/20 06:53:12;;;;;;;9.70;2.15;;;27.40;99.90;;;;;;5052506;28;20676;-75
2021/12/20 06:55:44;;;;;;;11.10;2.05;;;27.40;99.90;;;;;;5052438;28;20193;-75
2021/12/20 06:58:15;;;;;;;10.98;1.77;;;27.30;99.90;;;;;;5052566;28;20281;-76
2021/12/20 07:00:46;;;;;;;14.75;2.17;;;27.20;99.90;;;;;;5051332;28;20561;-75
2021/12/20 07:03:17;;;;;;;9.15;2.03;;;27.20;99.90;;;;;;5056244;28;20668;-76
2021/12/20 07:05:48;;;;;;;7.95;1.80;;;27.30;99.90;;;;;;5049032;28;20186;-75
2021/12/20 07:08:19;;;;;;;10.63;2.00;;;27.20;99.90;;;;;;5050707;28;20629;-75
2021/12/20 07:10:52;;;;;;;13.48;2.53;;;27.20;99.90;;;;;;5051746;28;20677;-76
2021/12/20 07:13:23;;;;;;;12.05;2.25;;;27.20;99.90;;;;;;5052231;28;20255;-76
2021/12/20 07:15:54;;;;;;;11.13;2.30;;;27.20;99.90;;;;;;5052146;28;20601;-75
2021/12/20 07:18:24;;;;;;;10.75;2.55;;;27.10;99.90;;;;;;5052046;28;20190;-76
2021/12/20 07:20:58;;;;;;;10.60;2.42;;;27.20;99.90;;;;;;5051297;28;20196;-76
2021/12/20 07:23:28;;;;;;;12.45;2.10;;;27.20;99.90;;;;;;5045525;28;20219;-75
2021/12/20 07:26:04;;;;;;;11.75;2.28;;;27.30;99.90;;;;;;5056252;28;20186;-76
2021/12/20 07:28:35;;;;;;;10.02;1.98;;;27.20;99.90;;;;;;5056236;28;20185;-76
2021/12/20 07:31:09;;;;;;;11.18;2.10;;;27.20;99.90;;;;;;5055745;28;20224;-76
2021/12/20 07:33:40;;;;;;;11.98;2.25;;;27.10;99.90;;;;;;5054950;28;20186;-75
2021/12/20 07:36:11;;;;;;;11.40;2.08;;;27.00;99.90;;;;;;5049501;28;20198;-76
2021/12/20 07:38:42;;;;;;;7.70;1.98;;;26.90;99.90;;;;;;5055770;28;20598;-76
2021/12/20 07:41:15;;;;;;;13.30;2.50;;;26.90;99.90;;;;;;5047536;28;20194;-76
2021/12/20 07:43:46;;;;;;;9.90;2.40;;;26.90;99.90;;;;;;5055853;28;20214;-75
2021/12/20 07:46:16;;;;;;;15.18;2.58;;;26.90;99.90;;;;;;5055802;28;20189;-76
2021/12/20 07:48:47;;;;;;;9.77;2.05;;;26.90;99.90;;;;;;5048176;28;20200;-75
2021/12/20 07:51:18;;;;;;;14.68;2.45;;;26.80;99.90;;;;;;5055457;28;20212;-76
2021/12/20 07:53:49;;;;;;;14.27;2.33;;;26.80;99.90;;;;;;5049145;28;20190;-76
2021/12/20 07:56:22;;;;;;;10.75;2.00;;;26.80;99.90;;;;;;5055545;28;20189;-77
2021/12/20 07:58:53;;;;;;;13.95;2.42;;;26.80;99.90;;;;;;5047778;28;20201;-76
2021/12/20 08:01:23;;;;;;;14.07;2.42;;;26.80;99.90;;;;;;5054809;28;20209;-76
2021/12/20 08:03:54;;;;;;;15.85;2.22;;;26.70;99.90;;;;;;5054387;28;20228;-76
2021/12/20 08:06:28;;;;;;;9.43;2.13;;;26.70;99.90;;;;;;5054980;28;20186;-76
2021/12/20 08:08:59;;;;;;;11.20;2.42;;;26.60;99.90;;;;;;5053952;28;20201;-76
2021/12/20 08:11:31;;;;;;;13.32;2.40;;;26.50;99.90;;;;;;5054808;28;20186;-76
2021/12/20 08:14:02;;;;;;;12.55;2.30;;;26.50;99.90;;;;;;5046995;28;20194;-76
2021/12/20 08:16:33;;;;;;;12.30;2.05;;;26.40;99.90;;;;;;5062478;28;20204;-76
2021/12/20 08:19:03;;;;;;;14.20;2.45;;;26.40;99.90;;;;;;5046815;28;20186;-76
2021/12/20 08:21:35;;;;;;;14.32;2.80;;;26.30;99.90;;;;;;5054695;28;20652;-75
2021/12/20 08:24:09;;;;;;;14.20;2.63;;;26.20;99.90;;;;;;5054727;28;20309;-77
2021/12/20 08:26:42;;;;;;;13.88;3.05;;;26.10;99.90;;;;;;5050672;28;20443;-75
2021/12/20 08:29:13;;;;;;;12.77;2.63;;;26.10;99.90;;;;;;5053977;28;20201;-75
2021/12/20 08:31:43;;;;;;;13.25;2.55;;;26.00;99.90;;;;;;5053367;28;20198;-75
2021/12/20 08:34:14;;;;;;;13.18;2.45;;;26.00;99.90;;;;;;5046866;28;20652;-75
2021/12/20 08:36:45;;;;;;;17.40;3.17;;;26.00;99.90;;;;;;5054263;28;20248;-75
2021/12/20 08:39:19;;;;;;;14.27;2.67;;;25.90;99.90;;;;;;5054935;28;20243;-75
2021/12/20 08:41:52;;;;;;;16.05;2.80;;;25.90;99.90;;;;;;5054565;28;20196;-76
2021/12/20 08:44:22;;;;;;;12.57;2.58;;;25.90;99.90;;;;;;5046855;28;20222;-75
2021/12/20 08:46:53;;;;;;;18.17;3.03;;;25.90;99.90;;;;;;5054084;28;20594;-75
2021/12/20 08:49:24;;;;;;;12.52;2.72;;;25.80;99.90;;;;;;5046959;28;20186;-75
2021/12/20 08:51:57;;;;;;;18.08;2.58;;;25.80;99.90;;;;;;5054244;28;20189;-75
2021/12/20 08:54:30;;;;;;;20.02;2.97;;;25.70;99.90;;;;;;5049120;28;20591;-75
2021/12/20 08:57:02;;;;;;;14.80;3.00;;;25.70;99.90;;;;;;5054145;28;20256;-76
2021/12/20 08:59:33;;;;;;;10.90;2.40;;;25.60;99.90;;;;;;5053943;28;20282;-75
2021/12/20 09:02:06;;;;;;;16.95;3.58;;;25.60;99.90;;;;;;5052687;28;20711;-75
2021/12/20 09:04:38;;;;;;;16.77;2.80;;;25.60;99.90;;;;;;5047289;28;20214;-75
2021/12/20 09:07:14;;;;;;;17.50;3.10;;;25.50;99.90;;;;;;5053492;28;20194;-75
2021/12/20 09:09:47;;;;;;;14.57;2.75;;;25.50;99.90;;;;;;5053909;28;20279;-75
2021/12/20 09:12:20;;;;;;;15.65;2.70;;;25.50;99.90;;;;;;5053847;28;20190;-75
2021/12/20 09:14:51;;;;;;;16.25;2.90;;;25.40;99.90;;;;;;5053637;28;20272;-74
2021/12/20 09:17:22;;;;;;;15.60;2.63;;;25.50;99.90;;;;;;5053061;28;20190;-75
2021/12/20 09:19:56;;;;;;;15.68;3.05;;;25.40;99.90;;;;;;5053485;28;20197;-75
2021/12/20 09:22:29;;;;;;;10.90;2.47;;;25.40;99.90;;;;;;5052918;28;20599;-75
2021/12/20 09:25:01;;;;;;;14.35;3.00;;;25.40;99.90;;;;;;5053106;28;20245;-75
2021/12/20 09:27:34;;;;;;;15.35;2.97;;;25.40;99.90;;;;;;5053467;28;20196;-75
2021/12/20 09:30:07;;;;;;;17.70;2.92;;;25.30;99.90;;;;;;5053432;28;20182;-75
2021/12/20 09:32:38;;;;;;;15.43;2.50;;;25.30;99.90;;;;;;5053111;28;20529;-75
2021/12/20 09:35:09;;;;;;;15.15;2.60;;;25.30;99.90;;;;;;5050304;28;20386;-75
2021/12/20 09:37:40;;;;;;;13.55;2.70;;;25.20;99.90;;;;;;5053358;28;20227;-76
2021/12/20 09:40:14;;;;;;;12.82;2.55;;;25.20;99.90;;;;;;5053271;28;20196;-75
2021/12/20 09:42:52;;;;;;;12.20;2.72;;;25.20;99.90;;;;;;5052845;28;20232;-75
2021/12/20 09:45:24;;;;;;;15.05;2.72;;;25.20;99.90;;;;;;5048528;28;20214;-76
2021/12/20 09:47:58;;;;;;;15.40;2.72;;;25.20;99.90;;;;;;5043107;28;20186;-75
2021/12/20 09:50:29;;;;;;;17.63;2.58;;;25.20;99.90;;;;;;5051439;28;20198;-75
2021/12/20 09:53:04;;;;;;;12.60;2.40;;;25.20;99.90;;;;;;5050057;28;20193;-75
2021/12/20 09:55:35;;;;;;;14.95;2.70;;;25.10;99.90;;;;;;5051846;28;20189;-75
2021/12/20 09:58:08;;;;;;;10.00;2.30;;;25.10;99.90;;;;;;5052603;28;20194;-75
2021/12/20 10:00:43;;;;;;;14.80;2.60;;;25.10;99.90;;;;;;5045168;28;20949;-75
2021/12/20 10:03:14;;;;;;;13.00;2.50;;;25.10;99.90;;;;;;5048888;28;20589;-76
2021/12/20 10:05:44;;;;;;;11.65;2.50;;;25.10;99.90;;;;;;5050411;28;20279;-75
2021/12/20 10:08:20;;;;;;;14.73;2.83;;;25.00;99.90;;;;;;5049732;28;20186;-75
2021/12/20 10:10:52;;;;;;;11.98;2.83;;;25.00;99.90;;;;;;5052876;28;20302;-75
2021/12/20 10:13:29;;;;;;;10.43;2.40;;;25.00;99.90;;;;;;5052735;28;20202;-75
2021/12/20 10:16:01;;;;;;;7.03;2.67;;;24.90;99.90;;;;;;5052248;28;20193;-75
2021/12/20 10:19:01;;;;;;;12.75;2.85;;;24.90;99.90;;;;;;5053014;28;20225;-76
2021/12/20 10:21:40;;;;;;;12.35;2.45;;;24.90;99.90;;;;;;5042951;28;20207;-75
2021/12/20 10:24:33;;;;;;;11.73;2.22;;;24.80;99.90;;;;;;5045211;28;20193;-75
2021/12/20 10:27:04;;;;;;;8.50;2.50;;;24.80;99.90;;;;;;5052763;28;20630;-75
2021/12/20 10:29:40;;;;;;;10.18;2.30;;;24.80;99.90;;;;;;5052786;28;20205;-75
2021/12/20 10:32:11;;;;;;;9.00;2.25;;;24.80;99.90;;;;;;5052951;28;20191;-76
2021/12/20 10:34:42;;;;;;;9.77;2.50;;;24.80;99.90;;;;;;5052049;28;20189;-75
2021/12/20 10:37:13;;;;;;;9.95;2.00;;;24.80;99.90;;;;;;5051047;28;20190;-75
2021/12/20 10:39:45;;;;;;;9.10;2.13;;;24.70;99.90;;;;;;5052717;28;20286;-76
2021/12/20 10:42:19;;;;;;;8.23;2.22;;;24.70;99.90;;;;;;5052281;28;20197;-75
2021/12/20 10:45:10;;;;;;;9.80;2.30;;;24.70;99.90;;;;;;5052749;28;20213;-76
2021/12/20 10:47:41;;;;;;;7.65;2.28;;;24.60;99.90;;;;;;5046509;28;20668;-76
2021/12/20 10:50:29;;;;;;;12.10;2.58;;;24.60;99.90;;;;;;5049423;28;20197;-76
2021/12/20 10:53:16;;;;;;;12.90;2.63;;;24.60;99.90;;;;;;5052832;28;20200;-75
2021/12/20 10:55:48;;;;;;;13.25;2.70;;;24.60;99.90;;;;;;5046525;28;20688;-75
2021/12/20 10:58:28;;;;;;;9.45;2.30;;;24.50;99.90;;;;;;5052655;28;20201;-75
2021/12/20 11:01:36;;;;;;;8.40;2.40;;;24.50;99.90;;;;;;5057153;28;20673;-75
2021/12/20 11:04:22;;;;;;;6.47;2.25;;;24.50;99.90;;;;;;5050606;28;20201;-75
2021/12/20 11:09:04;;;;;;;6.80;2.22;;;24.50;99.90;;;;;;5054203;28;20197;-75
2021/12/20 11:09:55;;;;;;;10.77;2.05;;;24.50;99.90;;;;;;5050151;28;20314;-76
2021/12/20 11:12:29;;;;;;;7.40;2.08;;;24.50;99.90;;;;;;5055988;28;20185;-75
2021/12/20 11:15:07;;;;;;;10.00;2.00;;;24.50;99.90;;;;;;5051250;28;20196;-76
2021/12/20 11:17:54;;;;;;;8.77;2.38;;;24.50;99.90;;;;;;5052817;28;20193;-76
2021/12/20 11:20:25;;;;;;;7.38;2.17;;;24.50;99.90;;;;;;5054078;28;20266;-76
2021/12/20 11:23:11;;;;;;;7.43;2.03;;;24.40;99.90;;;;;;5059002;28;20192;-75
2021/12/20 11:25:43;;;;;;;7.95;2.67;;;24.40;99.90;;;;;;5049043;28;20212;-75
2021/12/20 11:28:16;;;;;;;10.13;2.60;;;24.30;99.90;;;;;;5051337;28;20247;-76
2021/12/20 11:30:49;;;;;;;7.45;2.17;;;24.30;99.90;;;;;;5046225;28;20551;-75
2021/12/20 11:33:22;;;;;;;6.40;2.20;;;24.30;99.90;;;;;;5054512;28;20193;-76
2021/12/20 11:35:53;;;;;;;6.47;2.22;;;24.30;99.90;;;;;;5054372;28;20673;-76
2021/12/20 11:38:24;;;;;;;8.73;2.22;;;24.20;99.90;;;;;;5054956;28;20190;-76
2021/12/20 11:40:55;;;;;;;8.27;2.33;;;24.20;99.90;;;;;;5047838;28;20605;-76
2021/12/20 11:43:25;;;;;;;11.07;2.70;;;24.20;99.90;;;;;;5055368;28;20197;-76
2021/12/20 11:45:56;;;;;;;8.38;2.40;;;24.10;99.90;;;;;;5046862;28;20213;-76
2021/12/20 11:48:32;;;;;;;11.32;2.30;;;24.10;99.90;;;;;;5055162;28;20194;-76
2021/12/20 11:51:03;;;;;;;5.95;2.40;;;24.00;99.90;;;;;;5048178;28;20192;-76
2021/12/20 11:53:44;;;;;;;7.60;2.40;;;24.00;99.90;;;;;;5043934;28;20210;-76
2021/12/20 11:56:14;;;;;;;8.98;2.40;;;24.10;99.90;;;;;;5053157;28;20719;-76
2021/12/20 11:58:50;;;;;;;9.43;2.90;;;24.00;99.90;;;;;;5053918;28;20279;-76
2021/12/20 12:01:22;;;;;;;4.90;1.83;;;24.00;99.90;;;;;;5052580;28;20208;-76
2021/12/20 12:03:58;;;;;;;7.00;2.58;;;24.00;99.90;;;;;;5054662;28;20664;-76
2021/12/20 12:06:31;;;;;;;10.30;2.83;;;24.00;99.90;;;;;;5050633;28;20209;-76
2021/12/20 12:09:03;;;;;;;10.50;2.85;;;24.00;99.90;;;;;;5054507;28;20221;-76
2021/12/20 12:11:36;;;;;;;6.80;2.28;;;24.00;99.90;;;;;;5052395;28;20248;-76
2021/12/20 12:14:23;;;;;;;8.32;2.45;;;24.00;99.90;;;;;;5046739;28;20193;-76
2021/12/20 12:16:59;;;;;;;8.60;2.33;;;23.90;99.90;;;;;;5053934;28;20973;-75
2021/12/20 12:19:47;;;;;;;7.20;2.42;;;23.90;99.90;;;;;;5053477;28;20280;-75
2021/12/20 12:22:40;;;;;;;11.27;3.00;;;23.90;99.90;;;;;;5047643;28;20232;-75
2021/12/20 12:25:14;;;;;;;12.50;2.67;;;23.90;99.90;;;;;;5053335;28;20220;-75
2021/12/20 12:27:49;;;;;;;11.65;2.88;;;23.90;99.90;;;;;;5054326;28;20200;-75
2021/12/20 12:30:31;;;;;;;8.35;2.75;;;24.00;99.90;;;;;;5054050;28;20557;-75
2021/12/20 12:33:38;;;;;;;7.10;2.90;;;23.90;99.90;;;;;;5054786;28;20194;-75
2021/12/20 12:36:32;;;;;;;6.30;2.65;;;23.90;99.90;;;;;;5057072;28;20288;-75
2021/12/20 12:39:08;;;;;;;10.88;3.00;;;23.90;99.90;;;;;;5054358;28;20528;-76
2021/12/20 12:41:48;;;;;;;12.32;3.60;;;23.90;99.90;;;;;;5055027;28;20221;-76
2021/12/20 12:44:27;;;;;;;14.35;3.75;;;23.80;99.90;;;;;;5054373;28;20193;-76
2021/12/20 12:47:03;;;;;;;8.15;2.80;;;23.70;99.90;;;;;;5053765;28;20206;-76
2021/12/20 12:49:51;;;;;;;11.45;3.22;;;23.70;99.90;;;;;;5047464;28;20702;-75
2021/12/20 12:52:45;;;;;;;8.15;3.15;;;23.80;99.90;;;;;;5054180;28;20200;-75
2021/12/20 12:55:28;;;;;;;6.65;3.13;;;23.70;99.90;;;;;;5053063;28;20186;-75
2021/12/20 12:57:59;;;;;;;10.68;3.42;;;23.70;99.90;;;;;;5053041;28;20267;-75
2021/12/20 13:00:34;;;;;;;7.43;2.90;;;23.70;99.90;;;;;;5052814;28;20669;-76
2021/12/20 13:03:15;;;;;;;8.70;3.17;;;23.70;99.90;;;;;;5053973;28;20193;-76
2021/12/20 13:05:47;;;;;;;9.35;2.70;;;23.70;99.90;;;;;;5047755;28;20220;-75
2021/12/20 13:08:24;;;;;;;11.77;3.10;;;23.70;99.90;;;;;;5053369;28;20281;-75
2021/12/20 13:11:04;;;;;;;9.05;2.97;;;23.70;99.90;;;;;;5054288;28;20279;-75
2021/12/20 13:13:42;;;;;;;7.07;3.22;;;23.70;99.90;;;;;;5053916;28;20192;-76
2021/12/20 13:16:22;;;;;;;10.77;3.70;;;23.60;99.90;;;;;;5050698;28;20194;-75
2021/12/20 13:18:58;;;;;;;10.23;3.22;;;23.70;99.90;;;;;;5052377;28;20189;-75